Time;durP1;ratioP1;P1;durP2;ratioP2;P2;SDS_P1;SDS_P2;PMS_P1;PMS_P2;Temp;Humidity;BMP_temperature;BMP_pressure;BME280_temperature;BME280_humidity;BME280_pressure;Samples;Min_cycle;Max_cycle;Signal;HPM_P1;HPM_P2
2022/12/18 00:02:15;;;;;;;104.82;36.13;;;-3.00;99.90;;;;;;5059453;28;20086;-60
2022/12/18 00:04:41;;;;;;;95.25;33.50;;;-3.00;99.90;;;;;;5064995;28;20040;-60
2022/12/18 00:07:07;;;;;;;39.90;15.07;;;-2.90;99.90;;;;;;5066710;28;20043;-59
2022/12/18 00:09:34;;;;;;;92.43;31.80;;;-3.00;99.90;;;;;;5061451;28;20330;-60
2022/12/18 00:11:59;;;;;;;55.80;16.27;;;-3.10;99.90;;;;;;5062289;28;20051;-59
2022/12/18 00:14:25;;;;;;;72.55;27.27;;;-3.10;99.90;;;;;;5066251;28;20037;-60
2022/12/18 00:16:51;;;;;;;80.60;27.70;;;-3.10;99.90;;;;;;5058987;28;20080;-59
2022/12/18 00:19:17;;;;;;;69.82;24.17;;;-3.10;99.90;;;;;;5066700;28;20075;-60
2022/12/18 00:21:43;;;;;;;81.55;30.42;;;-3.10;99.90;;;;;;5066387;28;20082;-60
2022/12/18 00:24:11;;;;;;;90.80;34.63;;;-3.10;99.90;;;;;;5066716;28;20115;-60
2022/12/18 00:26:38;;;;;;;88.65;29.60;;;-3.10;99.90;;;;;;5065026;28;20390;-59
2022/12/18 00:29:09;;;;;;;52.35;16.35;;;-3.10;99.90;;;;;;5066079;28;20114;-60
2022/12/18 00:31:35;;;;;;;91.38;32.22;;;-3.20;99.90;;;;;;5066616;28;20421;-60
2022/12/18 00:34:01;;;;;;;88.70;28.45;;;-3.10;99.90;;;;;;5068193;28;20047;-59
2022/12/18 00:36:33;;;;;;;109.75;38.15;;;-3.10;99.90;;;;;;5066396;28;20391;-60
2022/12/18 00:39:00;;;;;;;82.13;29.63;;;-3.10;99.90;;;;;;5064697;28;20047;-60
2022/12/18 00:44:14;;;;;;;89.13;34.35;;;-3.10;99.90;;;;;;5065152;28;20434;-60
2022/12/18 00:46:42;;;;;;;93.38;31.63;;;-3.10;99.90;;;;;;5067559;28;20057;-60
2022/12/18 00:49:08;;;;;;;98.15;30.65;;;-3.10;99.90;;;;;;5067531;28;20063;-60
2022/12/18 00:51:34;;;;;;;60.55;22.50;;;-3.10;99.90;;;;;;5068366;28;20063;-60
2022/12/18 00:53:59;;;;;;;79.45;30.88;;;-3.20;99.90;;;;;;5064943;28;20175;-59
2022/12/18 00:56:25;;;;;;;80.15;31.95;;;-3.20;99.90;;;;;;5057967;28;20041;-60
2022/12/18 00:58:51;;;;;;;71.63;25.77;;;-3.30;99.90;;;;;;5065736;28;20127;-59
2022/12/18 01:01:17;;;;;;;50.33;17.92;;;-3.30;99.90;;;;;;5064589;28;20036;-60
2022/12/18 01:03:45;;;;;;;68.03;24.48;;;-3.40;99.90;;;;;;5067450;28;20420;-59
2022/12/18 01:06:13;;;;;;;66.72;23.65;;;-3.40;99.90;;;;;;5065984;28;20056;-59
2022/12/18 01:08:39;;;;;;;78.13;28.52;;;-3.40;99.90;;;;;;5067336;28;20390;-60
2022/12/18 01:11:17;;;;;;;65.53;26.30;;;-3.40;99.90;;;;;;5066622;28;20052;-60
2022/12/18 01:13:43;;;;;;;78.75;28.48;;;-3.40;99.90;;;;;;5065930;28;20152;-59
2022/12/18 01:16:12;;;;;;;71.63;26.52;;;-3.40;99.90;;;;;;5067867;28;20060;-59
2022/12/18 01:18:38;;;;;;;72.47;25.27;;;-3.40;99.90;;;;;;5066242;28;20048;-59
2022/12/18 01:21:13;;;;;;;64.10;25.83;;;-3.40;99.90;;;;;;5066835;28;20124;-60
2022/12/18 01:23:39;;;;;;;79.68;25.60;;;-3.40;99.90;;;;;;5064246;28;20086;-59
2022/12/18 01:26:13;;;;;;;71.32;24.10;;;-3.40;99.90;;;;;;5067390;28;20044;-59
2022/12/18 01:28:40;;;;;;;72.78;26.27;;;-3.40;99.90;;;;;;5063426;28;20048;-59
2022/12/18 01:31:16;;;;;;;65.53;24.05;;;-3.40;99.90;;;;;;5066610;28;20048;-59
2022/12/18 01:33:42;;;;;;;87.25;29.92;;;-3.40;99.90;;;;;;5062837;28;20406;-60
2022/12/18 01:36:08;;;;;;;68.57;24.70;;;-3.40;99.90;;;;;;5062690;28;20037;-59
2022/12/18 01:38:34;;;;;;;30.15;11.75;;;-3.50;99.90;;;;;;5063699;28;20052;-59
2022/12/18 01:41:01;;;;;;;89.25;31.35;;;-3.50;99.90;;;;;;5065247;28;20059;-60
2022/12/18 01:43:45;;;;;;;68.72;23.80;;;-3.50;99.90;;;;;;5066653;28;20499;-59
2022/12/18 01:46:11;;;;;;;83.65;29.52;;;-3.50;99.90;;;;;;5067045;28;20090;-59
2022/12/18 01:48:38;;;;;;;84.68;27.67;;;-3.50;99.90;;;;;;5065893;28;20048;-60
2022/12/18 01:51:05;;;;;;;80.90;29.90;;;-3.50;99.90;;;;;;5067128;28;20052;-59
2022/12/18 01:53:32;;;;;;;85.32;28.70;;;-3.50;99.90;;;;;;5065363;28;20048;-60
2022/12/18 01:55:59;;;;;;;63.33;20.83;;;-3.50;99.90;;;;;;5054410;28;20043;-59
2022/12/18 01:58:48;;;;;;;88.05;30.73;;;-3.50;99.90;;;;;;5066683;28;20123;-60
2022/12/18 02:01:14;;;;;;;83.65;27.65;;;-3.50;99.90;;;;;;5066141;28;20045;-60
2022/12/18 02:03:44;;;;;;;88.15;28.63;;;-3.60;99.90;;;;;;5066217;28;20055;-60
2022/12/18 02:06:39;;;;;;;77.55;24.98;;;-3.50;99.90;;;;;;5054778;28;20048;-60
2022/12/18 02:09:19;;;;;;;88.55;26.35;;;-3.60;99.90;;;;;;5064759;28;20399;-59
2022/12/18 02:12:05;;;;;;;85.75;27.83;;;-3.60;99.90;;;;;;5062533;28;20056;-60
2022/12/18 02:14:48;;;;;;;84.00;29.58;;;-3.60;99.90;;;;;;5065263;28;20040;-59
2022/12/18 02:17:21;;;;;;;88.25;27.83;;;-3.60;99.90;;;;;;5060422;28;20052;-60
2022/12/18 02:20:24;;;;;;;89.43;30.25;;;-3.60;99.90;;;;;;5058658;28;20056;-59
2022/12/18 02:23:08;;;;;;;83.78;29.38;;;-3.60;99.90;;;;;;5062458;28;20592;-59
2022/12/18 02:26:11;;;;;;;88.00;32.60;;;-3.70;99.90;;;;;;5062280;28;20052;-59
2022/12/18 02:28:45;;;;;;;71.47;25.55;;;-3.80;99.90;;;;;;5055206;28;20049;-59
2022/12/18 02:31:18;;;;;;;73.40;27.88;;;-3.90;99.90;;;;;;5063869;28;20053;-59
2022/12/18 02:33:45;;;;;;;81.10;30.58;;;-3.90;99.90;;;;;;5066161;28;20044;-59
2022/12/18 02:36:12;;;;;;;92.82;30.15;;;-4.00;99.90;;;;;;5065292;28;20119;-60
2022/12/18 02:38:39;;;;;;;88.68;30.52;;;-4.00;99.90;;;;;;5066274;28;20407;-59
2022/12/18 02:41:06;;;;;;;79.55;29.77;;;-4.00;99.90;;;;;;5052740;28;20049;-59
2022/12/18 02:43:31;;;;;;;87.40;32.50;;;-4.10;99.90;;;;;;5052433;28;20036;-59
2022/12/18 02:46:00;;;;;;;88.63;31.38;;;-4.10;99.90;;;;;;5064760;28;20071;-60
2022/12/18 02:48:32;;;;;;;88.35;31.85;;;-4.20;99.90;;;;;;5065151;28;20060;-59
2022/12/18 02:51:15;;;;;;;83.10;30.30;;;-4.20;99.90;;;;;;5064026;28;20063;-59
2022/12/18 02:53:59;;;;;;;76.35;24.90;;;-4.20;99.90;;;;;;5080852;28;20055;-59
2022/12/18 02:56:31;;;;;;;79.43;27.52;;;-4.20;99.90;;;;;;5061367;28;20086;-60
2022/12/18 02:59:01;;;;;;;79.68;29.25;;;-4.30;99.90;;;;;;5064950;28;20123;-60
2022/12/18 03:01:46;;;;;;;84.25;29.85;;;-4.40;99.90;;;;;;5066021;28;20044;-59
2022/12/18 03:04:18;;;;;;;87.57;30.65;;;-4.40;99.90;;;;;;5054503;28;20386;-59
2022/12/18 03:06:49;;;;;;;84.38;28.92;;;-4.50;99.90;;;;;;5053271;28;20048;-59
2022/12/18 03:09:21;;;;;;;94.43;31.65;;;-4.60;99.90;;;;;;5065862;28;20048;-60
2022/12/18 03:14:43;;;;;;;79.78;29.60;;;-4.70;99.90;;;;;;5052050;28;20045;-60
2022/12/18 03:17:15;;;;;;;84.20;30.00;;;-4.80;99.90;;;;;;5065447;28;20055;-60
2022/12/18 03:19:42;;;;;;;82.32;27.95;;;-4.70;99.90;;;;;;5064640;28;20076;-59
2022/12/18 03:22:09;;;;;;;86.85;30.98;;;-4.70;99.90;;;;;;5060993;28;20091;-59
2022/12/18 03:24:38;;;;;;;91.95;31.80;;;-4.70;99.90;;;;;;5058943;28;20531;-60
2022/12/18 03:27:11;;;;;;;90.00;33.55;;;-4.70;99.90;;;;;;5054816;28;20131;-60
2022/12/18 03:29:52;;;;;;;76.30;29.20;;;-4.70;99.90;;;;;;5064963;28;20533;-59
2022/12/18 03:32:31;;;;;;;69.18;26.52;;;-4.70;99.90;;;;;;5065004;28;20067;-59
2022/12/18 03:35:00;;;;;;;86.35;29.92;;;-4.70;99.90;;;;;;5065601;28;20047;-59
2022/12/18 03:37:26;;;;;;;84.20;31.35;;;-4.80;99.90;;;;;;5063082;28;20052;-59
2022/12/18 03:39:52;;;;;;;79.28;27.42;;;-4.80;99.90;;;;;;5065101;28;20158;-60
2022/12/18 03:42:23;;;;;;;79.25;27.17;;;-4.90;99.90;;;;;;5066638;28;20090;-59
2022/12/18 03:45:21;;;;;;;90.88;31.38;;;-4.90;99.90;;;;;;5069181;28;20084;-60
2022/12/18 03:48:02;;;;;;;82.95;29.15;;;-4.90;99.90;;;;;;5025778;28;20135;-59
2022/12/18 03:50:53;;;;;;;92.63;27.98;;;-5.00;99.90;;;;;;5055916;28;20036;-59
2022/12/18 03:53:32;;;;;;;;;;;-5.00;99.90;;;;;;5067997;28;20056;-59
2022/12/18 03:56:00;;;;;;;82.00;28.98;;;-5.00;99.90;;;;;;5068864;28;19928;-59
2022/12/18 03:58:27;;;;;;;79.30;29.27;;;-5.10;99.90;;;;;;5067301;28;20135;-59
2022/12/18 04:00:56;;;;;;;77.88;29.85;;;-5.10;99.90;;;;;;5067764;28;20441;-59
2022/12/18 04:03:24;;;;;;;75.15;26.92;;;-5.10;99.90;;;;;;5066878;28;20056;-59
2022/12/18 04:05:52;;;;;;;86.60;30.02;;;-5.10;99.90;;;;;;5064165;28;20045;-59
2022/12/18 04:08:18;;;;;;;84.15;29.20;;;-5.20;99.90;;;;;;5062975;28;20055;-59
2022/12/18 04:10:44;;;;;;;87.78;31.45;;;-5.20;99.90;;;;;;5065010;28;20048;-59
2022/12/18 04:13:10;;;;;;;87.95;29.42;;;-5.20;99.90;;;;;;5062491;28;20051;-60
2022/12/18 04:15:37;;;;;;;77.85;26.52;;;-5.20;99.90;;;;;;5046150;28;20320;-60
2022/12/18 04:18:03;;;;;;;82.80;27.48;;;-5.20;99.90;;;;;;5066875;28;20036;-60
2022/12/18 04:20:29;;;;;;;80.03;29.08;;;-5.30;99.90;;;;;;5068112;28;20047;-60
2022/12/18 04:22:55;;;;;;;74.20;24.40;;;-5.30;99.90;;;;;;5063886;28;20937;-60
2022/12/18 04:25:21;;;;;;;66.25;24.40;;;-5.30;99.90;;;;;;5068563;28;20078;-60
2022/12/18 04:27:47;;;;;;;69.78;24.67;;;-5.30;99.90;;;;;;5066699;28;20410;-60
2022/12/18 04:30:12;;;;;;;66.53;24.98;;;-5.30;99.90;;;;;;5064368;28;20037;-60
2022/12/18 04:32:38;;;;;;;68.97;23.05;;;-5.40;99.90;;;;;;5067488;28;20055;-60
2022/12/18 04:35:06;;;;;;;73.50;25.70;;;-5.40;99.90;;;;;;5067963;28;20033;-60
2022/12/18 04:37:32;;;;;;;68.43;24.50;;;-5.40;99.90;;;;;;5066623;28;20443;-60
2022/12/18 04:39:58;;;;;;;72.47;24.52;;;-5.40;99.90;;;;;;5066997;28;20127;-60
2022/12/18 04:42:23;;;;;;;71.22;23.38;;;-5.40;99.90;;;;;;5065863;28;20171;-60
2022/12/18 04:44:49;;;;;;;65.53;23.77;;;-5.50;99.90;;;;;;5068461;28;20049;-60
2022/12/18 04:47:15;;;;;;;58.67;23.17;;;-5.50;99.90;;;;;;5095203;28;20071;-60
2022/12/18 04:49:41;;;;;;;59.53;22.33;;;-5.50;99.90;;;;;;5084067;28;20053;-60
2022/12/18 04:52:07;;;;;;;57.10;20.50;;;-5.60;99.90;;;;;;5058431;28;20050;-60
2022/12/18 04:54:33;;;;;;;52.47;22.67;;;-5.60;99.90;;;;;;5067434;28;20039;-60
2022/12/18 04:56:59;;;;;;;51.05;21.13;;;-5.70;99.90;;;;;;5066213;28;20044;-60
2022/12/18 04:59:25;;;;;;;47.08;19.33;;;-5.70;99.90;;;;;;5067202;28;20091;-59
2022/12/18 05:01:51;;;;;;;48.85;21.20;;;-5.80;99.90;;;;;;5065513;28;20474;-60
2022/12/18 05:04:17;;;;;;;46.67;18.35;;;-5.80;99.90;;;;;;5090602;28;20544;-60
2022/12/18 05:06:43;;;;;;;51.05;19.60;;;-5.70;99.90;;;;;;5067749;28;20056;-59
2022/12/18 05:09:09;;;;;;;42.50;16.73;;;-5.70;99.90;;;;;;5067492;28;20040;-60
2022/12/18 05:11:34;;;;;;;42.40;16.27;;;-5.70;99.90;;;;;;5061118;28;20083;-60
2022/12/18 05:14:00;;;;;;;33.42;14.25;;;-5.60;99.90;;;;;;5062295;28;20044;-60
2022/12/18 05:16:26;;;;;;;42.35;18.45;;;-5.60;99.90;;;;;;5067367;28;20229;-60
2022/12/18 05:18:52;;;;;;;53.60;17.40;;;-5.60;99.90;;;;;;5066373;28;20123;-60
2022/12/18 05:21:17;;;;;;;47.13;17.83;;;-5.50;99.90;;;;;;5066782;28;20185;-59
2022/12/18 05:23:43;;;;;;;43.40;16.83;;;-5.50;99.90;;;;;;5061250;28;20053;-60
2022/12/18 05:26:14;;;;;;;38.20;16.88;;;-5.50;99.90;;;;;;5056749;28;20037;-60
2022/12/18 05:28:41;;;;;;;41.60;16.23;;;-5.60;99.90;;;;;;5067207;28;20045;-60
2022/12/18 05:31:07;;;;;;;48.33;20.38;;;-5.60;99.90;;;;;;5066890;28;20131;-59
2022/12/18 05:33:34;;;;;;;37.30;17.55;;;-5.60;99.90;;;;;;5065322;28;20119;-60
2022/12/18 05:36:02;;;;;;;39.15;16.77;;;-5.60;99.90;;;;;;5059695;28;20037;-60
2022/12/18 05:38:29;;;;;;;45.17;18.88;;;-5.60;99.90;;;;;;5061247;28;20061;-60
2022/12/18 05:40:55;;;;;;;42.97;15.73;;;-5.60;99.90;;;;;;5055642;28;20110;-60
2022/12/18 05:43:22;;;;;;;38.08;15.48;;;-5.70;99.90;;;;;;5063768;28;20040;-60
2022/12/18 05:45:49;;;;;;;39.55;16.65;;;-5.70;99.90;;;;;;5066279;28;20193;-60
2022/12/18 05:48:15;;;;;;;45.45;17.02;;;-5.80;99.90;;;;;;5066912;28;20131;-61
2022/12/18 05:50:45;;;;;;;44.47;16.92;;;-5.80;99.90;;;;;;5061799;28;20045;-60
2022/12/18 05:53:12;;;;;;;43.33;17.05;;;-5.80;99.90;;;;;;5062473;28;20382;-60
2022/12/18 05:55:40;;;;;;;40.95;17.80;;;-5.90;99.90;;;;;;5066466;28;20091;-60
2022/12/18 05:58:07;;;;;;;41.92;17.27;;;-5.90;99.90;;;;;;5061884;28;20049;-60
2022/12/18 06:00:35;;;;;;;41.85;16.77;;;-5.90;99.90;;;;;;5061770;28;20441;-60
2022/12/18 06:03:01;;;;;;;39.13;16.23;;;-5.90;99.90;;;;;;5065855;28;20037;-59
2022/12/18 06:05:36;;;;;;;50.03;16.95;;;-5.90;99.90;;;;;;5066379;28;20589;-60
2022/12/18 06:08:01;;;;;;;38.17;16.20;;;-5.90;99.90;;;;;;5064368;28;20044;-60
2022/12/18 06:10:27;;;;;;;38.65;16.02;;;-5.90;99.90;;;;;;5065986;28;20052;-60
2022/12/18 06:12:53;;;;;;;35.22;15.98;;;-5.90;99.90;;;;;;5066051;28;20032;-60
2022/12/18 06:15:18;;;;;;;37.95;15.95;;;-5.90;99.90;;;;;;5066302;28;20048;-60
2022/12/18 06:17:44;;;;;;;39.70;14.98;;;-6.00;99.90;;;;;;5065490;28;20028;-60
2022/12/18 06:20:10;;;;;;;38.75;15.60;;;-6.00;99.90;;;;;;5066101;28;20037;-60
2022/12/18 06:22:36;;;;;;;33.97;14.07;;;-6.00;99.90;;;;;;5064936;28;20052;-60
2022/12/18 06:25:02;;;;;;;43.42;15.65;;;-6.00;99.90;;;;;;5066154;28;20074;-60
2022/12/18 06:27:28;;;;;;;36.45;14.43;;;-6.00;99.90;;;;;;5054935;28;20049;-60
2022/12/18 06:29:53;;;;;;;35.80;15.60;;;-6.10;99.90;;;;;;5064269;28;20036;-60
2022/12/18 06:32:19;;;;;;;35.85;15.70;;;-6.10;99.90;;;;;;5061148;28;20037;-60
2022/12/18 06:34:45;;;;;;;44.08;16.60;;;-6.20;99.90;;;;;;5063410;28;20036;-60
2022/12/18 06:37:11;;;;;;;34.10;14.50;;;-6.10;99.90;;;;;;5062404;28;20487;-60
2022/12/18 06:39:36;;;;;;;38.78;15.05;;;-6.20;99.90;;;;;;5081608;28;20125;-60
2022/12/18 06:42:03;;;;;;;34.90;14.32;;;-6.20;99.90;;;;;;5066226;28;20473;-60
2022/12/18 06:44:29;;;;;;;34.03;14.60;;;-6.20;99.90;;;;;;5061000;28;20084;-60
2022/12/18 06:46:55;;;;;;;37.00;13.38;;;-6.20;99.90;;;;;;5065393;28;20107;-60
2022/12/18 06:49:20;;;;;;;33.88;13.82;;;-6.20;99.90;;;;;;5056050;28;20053;-60
2022/12/18 06:51:46;;;;;;;36.70;14.95;;;-6.20;99.90;;;;;;5059122;28;20044;-60
2022/12/18 06:54:12;;;;;;;29.67;12.85;;;-6.30;99.90;;;;;;5055846;28;20119;-60
2022/12/18 06:56:45;;;;;;;36.17;14.88;;;-6.30;99.90;;;;;;5065655;28;20055;-60
2022/12/18 06:59:13;;;;;;;22.67;10.02;;;-6.30;99.90;;;;;;5063553;28;20123;-60
2022/12/18 07:01:38;;;;;;;33.50;13.20;;;-6.20;99.90;;;;;;5066140;28;20044;-60
2022/12/18 07:04:04;;;;;;;37.58;13.43;;;-6.30;99.90;;;;;;5065693;28;20090;-60
2022/12/18 07:06:30;;;;;;;20.27;9.38;;;-6.30;99.90;;;;;;5065481;28;20131;-60
2022/12/18 07:08:56;;;;;;;28.35;11.57;;;-6.30;99.90;;;;;;5064707;28;20055;-60
2022/12/18 07:11:22;;;;;;;30.35;12.43;;;-6.30;99.90;;;;;;5065538;28;20457;-60
2022/12/18 07:13:48;;;;;;;31.20;12.65;;;-6.30;99.90;;;;;;5047542;28;20048;-60
2022/12/18 07:16:18;;;;;;;30.77;11.65;;;-6.30;99.90;;;;;;5067238;28;20048;-60
2022/12/18 07:18:45;;;;;;;30.10;13.20;;;-6.30;99.90;;;;;;5069162;28;20070;-59
2022/12/18 07:21:15;;;;;;;26.55;12.10;;;-6.30;99.90;;;;;;5069032;28;20091;-60
2022/12/18 07:23:40;;;;;;;37.10;13.15;;;-6.30;99.90;;;;;;5069791;28;20501;-60
2022/12/18 07:26:12;;;;;;;28.30;11.35;;;-6.30;99.90;;;;;;5069227;28;20052;-60
2022/12/18 07:28:39;;;;;;;28.50;12.50;;;-6.30;99.90;;;;;;5069515;28;20536;-60
2022/12/18 07:31:06;;;;;;;32.97;12.73;;;-6.40;99.90;;;;;;5068312;28;20080;-60
2022/12/18 07:33:33;;;;;;;31.80;13.48;;;-6.30;99.90;;;;;;5062802;28;20045;-60
2022/12/18 07:36:00;;;;;;;32.20;13.23;;;-6.40;99.90;;;;;;5064587;28;20120;-60
2022/12/18 07:38:26;;;;;;;26.58;13.20;;;-6.40;99.90;;;;;;5055158;28;20036;-60
2022/12/18 07:40:52;;;;;;;29.73;13.50;;;-6.40;99.90;;;;;;5069628;28;20523;-60
2022/12/18 07:43:18;;;;;;;28.15;13.10;;;-6.40;99.90;;;;;;5066091;28;20091;-60
2022/12/18 07:45:44;;;;;;;28.08;12.30;;;-6.40;99.90;;;;;;5065961;28;20664;-60
2022/12/18 07:48:10;;;;;;;33.28;13.43;;;-6.40;99.90;;;;;;5068897;28;20135;-60
2022/12/18 07:50:36;;;;;;;38.28;12.98;;;-6.40;99.90;;;;;;5069247;28;20116;-60
2022/12/18 07:53:04;;;;;;;35.17;14.50;;;-6.40;99.90;;;;;;5068953;28;20048;-60
2022/12/18 07:55:31;;;;;;;28.63;12.45;;;-6.40;99.90;;;;;;5068429;28;20568;-60
2022/12/18 07:58:00;;;;;;;31.67;11.38;;;-6.40;99.90;;;;;;5069373;28;20067;-60
2022/12/18 08:00:26;;;;;;;32.00;11.30;;;-6.40;99.90;;;;;;5067744;28;20032;-60
2022/12/18 08:02:51;;;;;;;30.88;14.55;;;-6.30;99.90;;;;;;5069353;28;20490;-60
2022/12/18 08:05:18;;;;;;;29.63;11.82;;;-6.30;99.90;;;;;;5067943;28;20037;-60
2022/12/18 08:07:43;;;;;;;24.02;10.55;;;-6.30;99.90;;;;;;5068899;28;20052;-60
2022/12/18 08:10:09;;;;;;;27.20;10.75;;;-6.30;99.90;;;;;;5068261;28;20048;-60
2022/12/18 08:12:35;;;;;;;20.95;8.88;;;-6.20;99.90;;;;;;5065592;28;20051;-60
2022/12/18 08:15:01;;;;;;;21.73;10.10;;;-6.20;99.90;;;;;;5065118;28;20040;-60
2022/12/18 08:17:26;;;;;;;18.30;7.97;;;-6.10;99.90;;;;;;5067380;28;20390;-60
2022/12/18 08:19:52;;;;;;;21.60;8.52;;;-6.10;99.90;;;;;;5068169;28;20051;-60
2022/12/18 08:22:18;;;;;;;27.80;11.75;;;-6.00;99.90;;;;;;5061530;28;20049;-60
2022/12/18 08:24:44;;;;;;;20.15;9.00;;;-6.00;99.90;;;;;;5068093;28;20049;-60
2022/12/18 08:27:10;;;;;;;24.55;10.15;;;-6.00;99.90;;;;;;5068101;28;20147;-60
2022/12/18 08:29:36;;;;;;;22.30;10.75;;;-6.00;99.90;;;;;;5066707;28;20135;-60
2022/12/18 08:32:02;;;;;;;24.45;10.57;;;-5.90;99.90;;;;;;5065635;28;20048;-60
2022/12/18 08:34:28;;;;;;;25.98;10.98;;;-5.80;99.90;;;;;;5064282;28;20040;-60
2022/12/18 08:36:53;;;;;;;22.42;10.43;;;-5.80;99.90;;;;;;5067897;28;20079;-60
2022/12/18 08:39:19;;;;;;;21.58;10.10;;;-5.80;99.90;;;;;;5068000;28;20075;-60
2022/12/18 08:44:37;;;;;;;24.48;11.10;;;-5.80;99.90;;;;;;5066620;28;20070;-60
2022/12/18 08:44:37;;;;;;;28.58;11.90;;;-5.70;99.90;;;;;;5063227;28;20106;-59
2022/12/18 08:47:03;;;;;;;27.73;11.55;;;-5.70;99.90;;;;;;5064185;28;20583;-60
2022/12/18 08:49:29;;;;;;;26.85;11.70;;;-5.70;99.90;;;;;;5066502;28;20091;-60
2022/12/18 08:51:59;;;;;;;22.13;9.43;;;-5.70;99.90;;;;;;5066253;28;20076;-60
2022/12/18 08:54:25;;;;;;;25.20;10.35;;;-5.70;99.90;;;;;;5054518;28;20036;-60
2022/12/18 08:56:51;;;;;;;20.73;10.25;;;-5.70;99.90;;;;;;5064309;28;20441;-60
2022/12/18 08:59:18;;;;;;;24.17;10.82;;;-5.70;99.90;;;;;;5067907;28;20485;-60
2022/12/18 09:01:44;;;;;;;17.25;9.07;;;-5.60;99.90;;;;;;5066323;28;20366;-60
2022/12/18 09:04:10;;;;;;;20.90;9.35;;;-5.60;99.90;;;;;;5055405;28;20123;-60
2022/12/18 09:06:36;;;;;;;19.05;10.13;;;-5.50;99.90;;;;;;5065787;28;20052;-60
2022/12/18 09:09:04;;;;;;;29.52;10.43;;;-5.40;99.90;;;;;;5067276;28;20410;-60
2022/12/18 09:11:30;;;;;;;15.82;8.07;;;-5.40;99.90;;;;;;5067383;28;20033;-60
2022/12/18 09:13:57;;;;;;;19.27;9.75;;;-5.30;99.90;;;;;;5066304;28;20037;-60
2022/12/18 09:16:25;;;;;;;14.43;7.75;;;-5.20;99.90;;;;;;5067418;28;20040;-60
2022/12/18 09:18:51;;;;;;;27.08;8.43;;;-5.10;99.90;;;;;;5065590;28;20122;-60
2022/12/18 09:21:20;;;;;;;22.05;8.60;;;-5.10;99.90;;;;;;5066077;28;20071;-60
2022/12/18 09:23:54;;;;;;;14.40;7.25;;;-5.00;99.90;;;;;;5062275;28;20499;-60
2022/12/18 09:26:21;;;;;;;14.70;7.22;;;-4.90;99.90;;;;;;5052762;28;20521;-60
2022/12/18 09:28:47;;;;;;;16.77;8.40;;;-4.80;99.90;;;;;;5065367;28;20083;-60
2022/12/18 09:31:13;;;;;;;18.83;8.20;;;-4.80;99.90;;;;;;5064782;28;20122;-60
2022/12/18 09:33:39;;;;;;;17.98;7.63;;;-4.70;99.90;;;;;;5066936;28;20055;-60
2022/12/18 09:36:07;;;;;;;21.27;7.97;;;-4.60;99.90;;;;;;5064510;28;20060;-60
2022/12/18 09:38:34;;;;;;;16.02;7.65;;;-4.60;99.90;;;;;;5066257;28;20053;-60
2022/12/18 09:41:17;;;;;;;16.65;8.18;;;-4.50;99.90;;;;;;5067598;28;20048;-60
2022/12/18 09:43:51;;;;;;;18.45;8.73;;;-4.50;99.90;;;;;;5065062;28;20062;-60
2022/12/18 09:46:27;;;;;;;8.73;4.50;;;-4.50;99.90;;;;;;5059054;28;20400;-60
2022/12/18 09:48:55;;;;;;;9.65;4.65;;;-4.40;99.90;;;;;;5066183;28;20063;-60
2022/12/18 09:51:34;;;;;;;15.13;6.97;;;-4.40;99.90;;;;;;5067029;28;20477;-60
2022/12/18 09:54:26;;;;;;;16.35;6.90;;;-4.40;99.90;;;;;;5068394;28;20040;-60
2022/12/18 09:56:52;;;;;;;17.15;7.47;;;-4.30;99.90;;;;;;5063488;28;20048;-60
2022/12/18 09:59:26;;;;;;;21.77;6.50;;;-4.30;99.90;;;;;;5065937;28;20037;-60
2022/12/18 10:01:52;;;;;;;16.33;7.03;;;-4.20;99.90;;;;;;5058792;28;20141;-60
2022/12/18 10:04:18;;;;;;;13.07;6.50;;;-4.10;99.90;;;;;;5051440;28;20110;-60
2022/12/18 10:07:17;;;;;;;12.98;5.90;;;-4.00;99.90;;;;;;5061061;28;20048;-60
2022/12/18 10:09:58;;;;;;;15.93;7.07;;;-4.00;99.90;;;;;;5053409;28;20060;-60
2022/12/18 10:12:49;;;;;;;9.60;5.57;;;-3.90;99.90;;;;;;5064917;28;20074;-60
2022/12/18 10:15:36;;;;;;;10.85;5.30;;;-3.90;99.90;;;;;;5055944;28;20094;-60
2022/12/18 10:18:29;;;;;;;8.40;5.57;;;-3.80;99.90;;;;;;5059576;28;20052;-60
2022/12/18 10:21:05;;;;;;;9.27;5.03;;;-3.70;99.90;;;;;;5066067;28;20449;-60
2022/12/18 10:23:56;;;;;;;15.18;5.35;;;-3.50;99.90;;;;;;5074138;28;20048;-60
2022/12/18 10:26:24;;;;;;;9.85;4.65;;;-3.40;99.90;;;;;;5066396;28;20041;-60
2022/12/18 10:28:51;;;;;;;11.80;5.28;;;-3.30;99.90;;;;;;5056841;28;20497;-60
2022/12/18 10:31:20;;;;;;;9.95;5.00;;;-3.20;99.90;;;;;;5064190;28;20036;-60
2022/12/18 10:33:47;;;;;;;13.15;6.38;;;-3.10;99.90;;;;;;5065798;28;20051;-60
2022/12/18 10:36:13;;;;;;;11.98;5.57;;;-3.00;99.90;;;;;;5064495;28;20055;-60
2022/12/18 10:38:39;;;;;;;12.75;5.55;;;-3.00;99.90;;;;;;5064393;28;20053;-60
2022/12/18 10:41:08;;;;;;;8.35;5.63;;;-2.80;99.90;;;;;;5065363;28;20032;-60
2022/12/18 10:43:39;;;;;;;12.13;5.72;;;-2.70;99.90;;;;;;5066051;28;20040;-60
2022/12/18 10:46:09;;;;;;;12.88;6.15;;;-2.60;99.90;;;;;;5065150;28;20179;-60
2022/12/18 10:48:47;;;;;;;;;;;-2.60;99.90;;;;;;5066045;28;20036;-60
2022/12/18 10:51:29;;;;;;;8.38;4.63;;;-2.60;99.90;;;;;;5066221;28;19940;-60
2022/12/18 10:54:16;;;;;;;10.60;5.68;;;-2.60;99.90;;;;;;5061535;28;20040;-60
2022/12/18 10:56:43;;;;;;;9.38;3.88;;;-2.60;99.90;;;;;;5065929;28;20052;-60
2022/12/18 10:59:12;;;;;;;9.27;5.35;;;-2.50;99.90;;;;;;5064974;28;20062;-60
2022/12/18 11:01:55;;;;;;;11.77;5.40;;;-2.50;99.90;;;;;;5062243;28;20052;-60
2022/12/18 11:04:29;;;;;;;12.00;6.45;;;-2.50;99.90;;;;;;5065715;28;20086;-60
2022/12/18 11:07:00;;;;;;;11.23;5.80;;;-2.50;99.90;;;;;;5065026;28;20045;-60
2022/12/18 11:09:34;;;;;;;26.13;9.85;;;-2.50;99.90;;;;;;5065905;28;20036;-60
2022/12/18 11:12:22;;;;;;;16.55;6.72;;;-2.50;99.90;;;;;;5058441;28;20036;-60
2022/12/18 11:14:53;;;;;;;8.25;4.07;;;-2.50;99.90;;;;;;5064192;28;20410;-60
2022/12/18 11:17:20;;;;;;;;;;;-2.40;99.90;;;;;;5066490;28;20048;-60
2022/12/18 11:19:54;;;;;;;15.20;6.55;;;-2.40;99.90;;;;;;5064778;28;19920;-60
2022/12/18 11:22:31;;;;;;;13.15;6.72;;;-2.40;99.90;;;;;;5065862;28;20044;-60
2022/12/18 11:25:05;;;;;;;14.80;6.95;;;-2.40;99.90;;;;;;5062460;28;20063;-60
2022/12/18 11:27:31;;;;;;;11.50;6.38;;;-2.40;99.90;;;;;;5063764;28;20094;-60
2022/12/18 11:30:24;;;;;;;12.20;5.75;;;-2.20;99.90;;;;;;5063252;28;20406;-60
2022/12/18 11:33:02;;;;;;;14.25;7.30;;;-2.20;99.90;;;;;;5063830;28;20036;-60
2022/12/18 11:35:53;;;;;;;14.65;7.13;;;-2.20;99.90;;;;;;5063990;28;20472;-60
2022/12/18 11:38:25;;;;;;;15.90;6.93;;;-2.20;99.90;;;;;;5052201;28;20048;-60
2022/12/18 11:41:20;;;;;;;21.58;7.25;;;-2.10;99.90;;;;;;5057001;28;20050;-60
2022/12/18 11:44:02;;;;;;;12.93;7.10;;;-2.10;99.90;;;;;;5061621;28;20044;-60
2022/12/18 11:46:34;;;;;;;12.93;6.25;;;-2.10;99.90;;;;;;5064068;28;20121;-60
2022/12/18 11:49:32;;;;;;;10.38;5.88;;;-2.00;99.90;;;;;;5064338;28;20132;-60
2022/12/18 11:52:16;;;;;;;9.98;5.55;;;-2.00;99.90;;;;;;5065177;28;20041;-60
2022/12/18 11:54:42;;;;;;;16.38;6.57;;;-1.90;99.90;;;;;;5057857;28;20090;-60
2022/12/18 11:57:27;;;;;;;11.85;6.72;;;-1.90;99.90;;;;;;5064841;28;20414;-60
2022/12/18 12:00:13;;;;;;;19.15;7.53;;;-1.80;99.90;;;;;;5063500;28;20076;-60
2022/12/18 12:03:01;;;;;;;8.65;4.00;;;-1.80;99.90;;;;;;5066537;28;20090;-60
2022/12/18 12:05:45;;;;;;;9.60;5.70;;;-1.80;99.90;;;;;;5067636;28;20032;-60
2022/12/18 12:08:53;;;;;;;11.65;6.15;;;-1.80;99.90;;;;;;5068467;28;20048;-60
2022/12/18 12:11:38;;;;;;;9.50;5.65;;;-1.80;99.90;;;;;;5057417;28;20072;-60
2022/12/18 12:14:36;;;;;;;11.43;3.95;;;-1.80;99.90;;;;;;5068282;28;20044;-60
2022/12/18 12:17:26;;;;;;;15.95;6.47;;;-1.80;99.90;;;;;;5065390;28;20181;-60
2022/12/18 12:20:06;;;;;;;9.77;5.38;;;-1.80;99.90;;;;;;5050028;28;20041;-60
2022/12/18 12:22:52;;;;;;;10.52;6.03;;;-1.80;99.90;;;;;;5063851;28;20052;-60
2022/12/18 12:25:39;;;;;;;13.40;5.20;;;-1.80;99.90;;;;;;5049638;28;20053;-60
2022/12/18 12:28:43;;;;;;;9.40;5.88;;;-1.80;99.90;;;;;;5066980;28;20048;-60
2022/12/18 12:31:24;;;;;;;8.93;5.28;;;-1.80;99.90;;;;;;5060580;28;20044;-60
2022/12/18 12:34:05;;;;;;;9.45;5.43;;;-1.80;99.90;;;;;;5067174;28;20091;-60
2022/12/18 12:36:37;;;;;;;10.75;5.63;;;-1.70;99.90;;;;;;5066225;28;20040;-60
2022/12/18 12:39:17;;;;;;;10.40;5.00;;;-1.70;99.90;;;;;;5068044;28;20067;-60
2022/12/18 12:44:37;;;;;;;14.30;6.03;;;-1.70;99.90;;;;;;5066640;28;20045;-60
2022/12/18 12:47:16;;;;;;;10.13;5.57;;;-1.70;99.90;;;;;;5067768;28;20391;-61
2022/12/18 12:49:47;;;;;;;7.13;4.13;;;-1.70;99.90;;;;;;5067464;28;20056;-60
2022/12/18 12:52:34;;;;;;;11.25;6.03;;;-1.70;99.90;;;;;;5066195;28;20072;-60
2022/12/18 12:55:02;;;;;;;11.30;5.65;;;-1.70;99.90;;;;;;5066677;28;20402;-60
2022/12/18 12:57:36;;;;;;;11.65;5.85;;;-1.70;99.90;;;;;;5068435;28;20067;-60
2022/12/18 13:00:03;;;;;;;14.13;5.88;;;-1.60;99.90;;;;;;5066402;28;20044;-60